createdAt,value
2023-01-23T00:00:01.315Z,16
2023-01-23T00:01:01.285Z,17
2023-01-23T00:02:01.265Z,16
2023-01-23T00:03:02.003Z,16
2023-01-23T00:04:01.313Z,15
2023-01-23T00:05:01.754Z,16
2023-01-23T00:06:01.325Z,17
2023-01-23T00:07:01.438Z,19
2023-01-23T00:08:01.248Z,15
2023-01-23T00:09:01.686Z,17
2023-01-23T00:10:01.489Z,16
2023-01-23T00:11:01.271Z,16
2023-01-23T00:12:01.831Z,18
2023-01-23T00:13:01.446Z,18
2023-01-23T00:14:01.931Z,15
2023-01-23T00:15:01.277Z,17
2023-01-23T00:16:02.038Z,14
2023-01-23T00:17:01.275Z,17
2023-01-23T00:18:01.988Z,16
2023-01-23T00:19:01.314Z,16
2023-01-23T00:20:01.235Z,16
2023-01-23T00:21:01.681Z,16
2023-01-23T00:22:01.824Z,18
2023-01-23T00:23:00.167Z,18
2023-01-23T00:24:01.296Z,18
2023-01-23T00:25:01.303Z,18
2023-01-23T00:26:01.241Z,18
2023-01-23T00:27:02.091Z,16
2023-01-23T00:28:01.250Z,19
2023-01-23T00:29:01.806Z,18
2023-01-23T00:30:02.115Z,15
2023-01-23T00:31:02.115Z,19
2023-01-23T00:32:01.392Z,21
2023-01-23T00:33:01.251Z,19
2023-01-23T00:34:01.298Z,20
2023-01-23T00:35:01.256Z,18
2023-01-23T00:36:02.118Z,21
2023-01-23T00:37:01.761Z,19
2023-01-23T00:38:01.935Z,19
2023-01-23T00:39:01.815Z,20
2023-01-23T00:40:01.315Z,21
2023-01-23T00:41:03.554Z,21
2023-01-23T00:42:01.795Z,21
2023-01-23T00:43:01.327Z,19
2023-01-23T00:44:01.367Z,18
2023-01-23T00:45:02.119Z,21
2023-01-23T00:46:01.310Z,19
2023-01-23T00:47:01.442Z,20
2023-01-23T00:48:01.684Z,21
2023-01-23T00:49:01.309Z,21
2023-01-23T00:50:01.786Z,20
2023-01-23T00:51:01.492Z,23
2023-01-23T00:52:01.799Z,18
2023-01-23T00:53:01.842Z,20
2023-01-23T00:54:02.999Z,21
2023-01-23T00:55:01.697Z,21
2023-01-23T00:56:01.701Z,18
2023-01-23T00:57:01.244Z,16
2023-01-23T00:58:01.460Z,19
2023-01-23T00:59:01.242Z,18
2023-01-23T01:00:01.880Z,20
2023-01-23T01:01:01.471Z,19
2023-01-23T01:02:01.332Z,18
2023-01-23T01:03:02.211Z,20
2023-01-23T01:04:01.994Z,21
2023-01-23T01:05:01.254Z,19
2023-01-23T01:06:01.301Z,17
2023-01-23T01:07:01.305Z,18
2023-01-23T01:08:00.635Z,18
2023-01-23T01:09:01.653Z,20
2023-01-23T01:10:01.269Z,21
2023-01-23T01:11:01.305Z,21
2023-01-23T01:12:01.269Z,18
2023-01-23T01:13:01.246Z,20
2023-01-23T01:14:01.234Z,19
2023-01-23T01:15:01.335Z,20
2023-01-23T01:16:01.568Z,20
2023-01-23T01:17:01.367Z,19
2023-01-23T01:18:01.239Z,20
2023-01-23T01:19:01.249Z,18
2023-01-23T01:20:01.824Z,21
2023-01-23T01:21:01.540Z,19
2023-01-23T01:22:01.232Z,20
2023-01-23T01:23:01.905Z,18
2023-01-23T01:24:01.329Z,19
2023-01-23T01:25:01.426Z,20
2023-01-23T01:26:01.258Z,18
2023-01-23T01:27:01.389Z,18
2023-01-23T01:28:01.590Z,20
2023-01-23T01:29:01.924Z,17
2023-01-23T01:30:02.008Z,21
2023-01-23T01:31:01.572Z,18
2023-01-23T01:32:01.674Z,20
2023-01-23T01:33:01.329Z,20
2023-01-23T01:34:01.238Z,18
2023-01-23T01:35:01.786Z,19
2023-01-23T01:36:01.243Z,20
2023-01-23T01:37:02.065Z,20
2023-01-23T01:38:01.551Z,19
2023-01-23T01:39:01.247Z,21
2023-01-23T01:40:01.744Z,21
2023-01-23T01:41:01.369Z,20
2023-01-23T01:42:02.109Z,22
2023-01-23T01:43:01.611Z,20
2023-01-23T01:44:01.753Z,21
2023-01-23T01:45:01.958Z,24
2023-01-23T01:46:01.845Z,19
2023-01-23T01:47:01.827Z,22
2023-01-23T01:48:01.230Z,20
2023-01-23T01:49:01.233Z,24
2023-01-23T01:50:01.930Z,18
2023-01-23T01:51:02.025Z,19
2023-01-23T01:52:01.238Z,23
2023-01-23T01:53:01.235Z,21
2023-01-23T01:54:01.229Z,20
2023-01-23T01:55:01.250Z,20
2023-01-23T01:56:01.228Z,19
2023-01-23T01:57:01.231Z,22
2023-01-23T01:58:01.304Z,21
2023-01-23T01:59:01.308Z,20
2023-01-23T02:00:01.373Z,20
2023-01-23T02:01:01.306Z,19
2023-01-23T02:02:01.566Z,19
2023-01-23T02:03:01.689Z,19
2023-01-23T02:04:01.790Z,22
2023-01-23T02:05:01.619Z,21
2023-01-23T02:06:01.241Z,20
2023-01-23T02:07:01.826Z,20
2023-01-23T02:08:01.308Z,17
2023-01-23T02:09:01.321Z,20
2023-01-23T02:10:01.759Z,18
2023-01-23T02:11:01.247Z,19
2023-01-23T02:12:01.583Z,20
2023-01-23T02:13:02.150Z,19
2023-01-23T02:14:01.809Z,20
2023-01-23T02:15:02.012Z,18
2023-01-23T02:16:01.870Z,20
2023-01-23T02:17:01.849Z,19
2023-01-23T02:18:01.247Z,18
2023-01-23T02:19:01.242Z,19
2023-01-23T02:20:01.256Z,19
2023-01-23T02:21:01.220Z,19
2023-01-23T02:22:01.757Z,19
2023-01-23T02:23:01.380Z,18
2023-01-23T02:24:01.241Z,18
2023-01-23T02:25:02.110Z,20
2023-01-23T02:26:01.909Z,17
2023-01-23T02:27:01.379Z,18
2023-01-23T02:28:01.497Z,19
2023-01-23T02:29:01.808Z,20
2023-01-23T02:30:01.415Z,17
2023-01-23T02:31:02.226Z,18
2023-01-23T02:32:02.201Z,19
2023-01-23T02:33:01.712Z,19
2023-01-23T02:34:01.974Z,19
2023-01-23T02:35:02.101Z,21
2023-01-23T02:36:01.715Z,20
2023-01-23T02:37:01.237Z,22
2023-01-23T02:38:01.218Z,18
2023-01-23T02:39:02.145Z,19
2023-01-23T02:40:01.234Z,21
2023-01-23T02:41:01.223Z,20
2023-01-23T02:42:01.856Z,19
2023-01-23T02:43:02.419Z,19
2023-01-23T02:44:01.259Z,19
2023-01-23T02:45:01.234Z,19
2023-01-23T02:46:01.814Z,19
2023-01-23T02:47:01.237Z,22
2023-01-23T02:48:01.395Z,19
2023-01-23T02:49:01.332Z,20
2023-01-23T02:50:01.796Z,19
2023-01-23T02:51:01.346Z,20
2023-01-23T02:52:02.292Z,18
2023-01-23T02:53:02.074Z,18
2023-01-23T02:54:01.649Z,18
2023-01-23T02:55:01.627Z,19
2023-01-23T02:56:01.900Z,21
2023-01-23T02:57:01.242Z,19
2023-01-23T02:58:01.859Z,19
2023-01-23T02:59:02.026Z,18
2023-01-23T03:00:00.576Z,19
2023-01-23T03:01:02.103Z,21
2023-01-23T03:02:01.976Z,19
2023-01-23T03:03:01.255Z,18
2023-01-23T03:04:01.480Z,20
2023-01-23T03:05:01.930Z,18
2023-01-23T03:06:01.249Z,18
2023-01-23T03:07:02.001Z,19
2023-01-23T03:08:01.954Z,19
2023-01-23T03:09:01.729Z,19
2023-01-23T03:10:01.241Z,18
2023-01-23T03:11:01.930Z,19
2023-01-23T03:12:01.551Z,20
2023-01-23T03:13:01.772Z,19
2023-01-23T03:14:01.229Z,18
2023-01-23T03:15:01.241Z,18
2023-01-23T03:16:01.633Z,21
2023-01-23T03:17:01.299Z,19
2023-01-23T03:18:01.322Z,17
2023-01-23T03:19:01.224Z,19
2023-01-23T03:20:01.808Z,20
2023-01-23T03:21:01.228Z,19
2023-01-23T03:22:01.978Z,21
2023-01-23T03:23:00.616Z,20
2023-01-23T03:24:01.298Z,21
2023-01-23T03:25:01.406Z,19
2023-01-23T03:26:02.138Z,16
2023-01-23T03:27:01.310Z,20
2023-01-23T03:28:01.276Z,18
2023-01-23T03:29:01.272Z,19
2023-01-23T03:30:01.483Z,18
2023-01-23T03:31:01.674Z,17
2023-01-23T03:32:01.231Z,20
2023-01-23T03:33:01.379Z,18
2023-01-23T03:34:01.248Z,18
2023-01-23T03:35:01.289Z,17
2023-01-23T03:36:01.612Z,19
2023-01-23T03:37:01.249Z,17
2023-01-23T03:38:01.245Z,18
2023-01-23T03:39:01.227Z,19
2023-01-23T03:40:01.373Z,18
2023-01-23T03:41:01.280Z,18
2023-01-23T03:42:01.228Z,17
2023-01-23T03:43:01.651Z,18
2023-01-23T03:44:01.317Z,18
2023-01-23T03:45:00.418Z,18
2023-01-23T03:46:01.338Z,17
2023-01-23T03:47:01.778Z,16
2023-01-23T03:48:01.432Z,14
2023-01-23T03:49:01.852Z,17
2023-01-23T03:50:01.738Z,18
2023-01-23T03:51:01.522Z,17
2023-01-23T03:52:01.306Z,20
2023-01-23T03:53:01.300Z,17
2023-01-23T03:54:01.457Z,18
2023-01-23T03:55:01.816Z,18
2023-01-23T03:56:01.408Z,18
2023-01-23T03:57:01.562Z,16
2023-01-23T03:58:01.464Z,19
2023-01-23T03:59:01.442Z,17
2023-01-23T04:00:01.873Z,16
2023-01-23T04:01:02.172Z,19
2023-01-23T04:02:01.778Z,18
2023-01-23T04:03:01.301Z,16
2023-01-23T04:04:01.951Z,17
2023-01-23T04:05:01.850Z,17
2023-01-23T04:06:01.676Z,16
2023-01-23T04:07:01.282Z,18
2023-01-23T04:08:01.501Z,16
2023-01-23T04:09:01.296Z,19
2023-01-23T04:10:01.490Z,18
2023-01-23T04:11:01.227Z,19
2023-01-23T04:12:01.260Z,19
2023-01-23T04:13:01.897Z,19
2023-01-23T04:14:01.284Z,17
2023-01-23T04:15:02.130Z,18
2023-01-23T04:16:01.213Z,17
2023-01-23T04:17:01.550Z,20
2023-01-23T04:18:01.332Z,19
2023-01-23T04:19:02.261Z,19
2023-01-23T04:20:01.233Z,17
2023-01-23T04:21:01.223Z,19
2023-01-23T04:22:01.299Z,18
2023-01-23T04:23:01.237Z,19
2023-01-23T04:24:01.992Z,19
2023-01-23T04:25:01.223Z,19
2023-01-23T04:26:01.880Z,18
2023-01-23T04:27:02.018Z,19
2023-01-23T04:28:02.005Z,19
2023-01-23T04:29:01.351Z,18
2023-01-23T04:30:01.227Z,19
2023-01-23T04:31:01.725Z,19
2023-01-23T04:32:01.806Z,19
2023-01-23T04:33:01.694Z,21
2023-01-23T04:34:01.691Z,18
2023-01-23T04:35:01.422Z,20
2023-01-23T04:36:01.299Z,21
2023-01-23T04:37:01.864Z,19
2023-01-23T04:38:02.213Z,18
2023-01-23T04:39:01.224Z,19
2023-01-23T04:40:01.222Z,19
2023-01-23T04:41:01.752Z,20
2023-01-23T04:42:01.692Z,19
2023-01-23T04:43:01.676Z,20
2023-01-23T04:44:01.444Z,19
2023-01-23T04:45:01.213Z,21
2023-01-23T04:46:01.891Z,21
2023-01-23T04:47:01.451Z,20
2023-01-23T04:48:01.365Z,22
2023-01-23T04:49:02.083Z,25
2023-01-23T04:50:01.744Z,21
2023-01-23T04:51:01.304Z,23
2023-01-23T04:52:01.220Z,21
2023-01-23T04:53:01.582Z,19
2023-01-23T04:54:01.972Z,21
2023-01-23T04:55:01.237Z,25
2023-01-23T04:56:01.352Z,24
2023-01-23T04:57:01.612Z,43
2023-01-23T04:58:01.897Z,65
2023-01-23T04:59:01.213Z,58
2023-01-23T05:00:02.117Z,66
2023-01-23T05:01:01.338Z,38
2023-01-23T05:02:01.295Z,40
2023-01-23T05:03:01.239Z,34
2023-01-23T05:04:01.242Z,24
2023-01-23T05:05:02.160Z,26
2023-01-23T05:06:02.042Z,22
2023-01-23T05:07:01.486Z,25
2023-01-23T05:08:01.227Z,22
2023-01-23T05:09:02.043Z,22
2023-01-23T05:10:01.303Z,21
2023-01-23T05:11:01.379Z,23
2023-01-23T05:12:01.735Z,23
2023-01-23T05:13:01.204Z,22
2023-01-23T05:14:01.237Z,22
2023-01-23T05:16:01.259Z,21
2023-01-23T05:17:01.919Z,22
2023-01-23T05:18:01.246Z,22
2023-01-23T05:19:01.504Z,22
2023-01-23T05:20:01.892Z,23
2023-01-23T05:21:01.217Z,23
2023-01-23T05:22:01.215Z,22
2023-01-23T05:23:01.759Z,21
2023-01-23T05:24:01.354Z,22
2023-01-23T05:25:01.238Z,23
2023-01-23T05:26:01.625Z,23
2023-01-23T05:27:01.327Z,20
2023-01-23T05:28:01.815Z,22
2023-01-23T05:29:01.251Z,20
2023-01-23T05:30:01.751Z,21
2023-01-23T05:31:01.351Z,18
2023-01-23T05:32:01.569Z,21
2023-01-23T05:33:01.248Z,18
2023-01-23T05:34:02.032Z,19
2023-01-23T05:35:01.218Z,19
2023-01-23T05:36:02.211Z,21
2023-01-23T05:37:01.568Z,19
2023-01-23T05:38:01.293Z,26
2023-01-23T05:39:01.243Z,23
2023-01-23T05:40:01.217Z,29
2023-01-23T05:41:01.210Z,25
2023-01-23T05:42:01.448Z,24
2023-01-23T05:43:01.874Z,24
2023-01-23T05:44:01.848Z,26
2023-01-23T05:45:01.562Z,22
2023-01-23T05:46:02.031Z,20
2023-01-23T05:47:01.233Z,20
2023-01-23T05:48:01.842Z,22
2023-01-23T05:49:01.732Z,23
2023-01-23T05:50:01.907Z,22
2023-01-23T05:51:01.879Z,23
2023-01-23T05:52:02.097Z,24
2023-01-23T05:53:01.717Z,24
2023-01-23T05:54:01.330Z,22
2023-01-23T05:55:01.217Z,22
2023-01-23T05:56:01.564Z,22
2023-01-23T05:57:01.548Z,20
2023-01-23T05:58:01.313Z,22
2023-01-23T05:59:01.222Z,23
2023-01-23T06:00:01.232Z,23
2023-01-23T06:01:01.320Z,21
2023-01-23T06:02:01.299Z,23
2023-01-23T06:03:01.273Z,23
2023-01-23T06:04:01.344Z,23
2023-01-23T06:05:01.239Z,25
2023-01-23T06:06:02.118Z,23
2023-01-23T06:07:01.987Z,23
2023-01-23T06:08:02.251Z,22
2023-01-23T06:09:01.222Z,21
2023-01-23T06:10:01.225Z,21
2023-01-23T06:11:01.289Z,20
2023-01-23T06:12:01.443Z,21
2023-01-23T06:13:01.223Z,22
2023-01-23T06:14:01.217Z,21
2023-01-23T06:15:01.656Z,22
2023-01-23T06:16:02.074Z,20
2023-01-23T06:17:01.632Z,21
2023-01-23T06:18:01.437Z,19
2023-01-23T06:19:01.460Z,20
2023-01-23T06:20:00.320Z,18
2023-01-23T06:21:01.310Z,18
2023-01-23T06:22:02.195Z,21
2023-01-23T06:23:01.203Z,20
2023-01-23T06:24:01.472Z,20
2023-01-23T06:25:01.669Z,19
2023-01-23T06:26:01.211Z,18
2023-01-23T06:27:01.230Z,19
2023-01-23T06:28:01.289Z,20
2023-01-23T06:29:01.821Z,22
2023-01-23T06:30:01.248Z,20
2023-01-23T06:31:01.583Z,19
2023-01-23T06:32:01.223Z,19
2023-01-23T06:33:01.260Z,20
2023-01-23T06:34:01.841Z,18
2023-01-23T06:35:01.232Z,17
2023-01-23T06:36:01.209Z,19
2023-01-23T06:37:01.553Z,19
2023-01-23T06:38:01.305Z,20
2023-01-23T06:39:01.407Z,18
2023-01-23T06:40:02.008Z,19
2023-01-23T06:41:01.209Z,17
2023-01-23T06:42:01.232Z,17
2023-01-23T06:43:01.683Z,18
2023-01-23T06:44:00.049Z,18
2023-01-23T06:45:01.597Z,18
2023-01-23T06:46:02.317Z,18
2023-01-23T06:47:01.849Z,17
2023-01-23T06:48:01.204Z,17
2023-01-23T06:49:01.263Z,17
2023-01-23T06:50:02.113Z,17
2023-01-23T06:51:01.498Z,17
2023-01-23T06:52:01.239Z,19
2023-01-23T06:53:01.743Z,19
2023-01-23T06:54:01.749Z,19
2023-01-23T06:55:01.668Z,21
2023-01-23T06:56:01.205Z,19
2023-01-23T06:57:01.649Z,17
2023-01-23T06:58:01.998Z,18
2023-01-23T06:59:01.205Z,20
2023-01-23T07:00:01.248Z,17
2023-01-23T07:01:01.572Z,18
2023-01-23T07:02:01.786Z,19
2023-01-23T07:03:01.619Z,19
2023-01-23T07:04:01.306Z,20
2023-01-23T07:05:01.215Z,21
2023-01-23T07:06:02.168Z,21
2023-01-23T07:07:01.230Z,22
2023-01-23T07:08:03.065Z,22
2023-01-23T07:09:01.223Z,22
2023-01-23T07:10:01.922Z,20
2023-01-23T07:11:01.710Z,23
2023-01-23T07:12:02.224Z,22
2023-01-23T07:13:01.272Z,21
2023-01-23T07:14:01.218Z,20
2023-01-23T07:15:02.033Z,20
2023-01-23T07:16:01.291Z,21
2023-01-23T07:17:01.946Z,20
2023-01-23T07:18:01.937Z,22
2023-01-23T07:19:01.229Z,17
2023-01-23T07:20:01.679Z,19
2023-01-23T07:21:01.413Z,19
2023-01-23T07:22:01.238Z,17
2023-01-23T07:23:02.981Z,18
2023-01-23T07:24:01.324Z,18
2023-01-23T07:25:01.686Z,17
2023-01-23T07:26:01.204Z,18
2023-01-23T07:27:01.806Z,17
2023-01-23T07:28:01.255Z,18
2023-01-23T07:29:02.080Z,17
2023-01-23T07:30:01.271Z,18
2023-01-23T07:31:01.829Z,19
2023-01-23T07:32:01.497Z,20
2023-01-23T07:33:01.216Z,21
2023-01-23T07:34:01.282Z,19
2023-01-23T07:35:01.207Z,20
2023-01-23T07:36:01.209Z,18
2023-01-23T07:37:02.060Z,19
2023-01-23T07:38:02.148Z,17
2023-01-23T07:39:01.237Z,18
2023-01-23T07:40:01.319Z,16
2023-01-23T07:41:01.765Z,17
2023-01-23T07:42:01.560Z,17
2023-01-23T07:43:01.244Z,18
2023-01-23T07:44:01.200Z,16
2023-01-23T07:45:01.216Z,18
2023-01-23T07:46:01.557Z,17
2023-01-23T07:47:01.390Z,17
2023-01-23T07:48:01.217Z,18
2023-01-23T07:49:01.232Z,19
2023-01-23T07:50:01.199Z,20
2023-01-23T07:51:00.658Z,17
2023-01-23T07:52:01.682Z,19
2023-01-23T07:53:01.818Z,20
2023-01-23T07:54:01.215Z,19
2023-01-23T07:55:01.252Z,19
2023-01-23T07:56:01.269Z,19
2023-01-23T07:57:01.390Z,18
2023-01-23T07:58:01.208Z,19
2023-01-23T07:59:01.448Z,18
2023-01-23T08:00:01.285Z,24
2023-01-23T08:01:01.788Z,19
2023-01-23T08:02:01.240Z,19
2023-01-23T08:03:02.121Z,20
2023-01-23T08:04:01.381Z,18
2023-01-23T08:05:01.997Z,18
2023-01-23T08:06:01.191Z,19
2023-01-23T08:07:01.746Z,21
2023-01-23T08:08:12.660Z,20
2023-01-23T08:09:01.211Z,20
2023-01-23T08:10:02.115Z,19
2023-01-23T08:11:01.877Z,19
2023-01-23T08:12:01.307Z,19
2023-01-23T08:13:00.120Z,20
2023-01-23T08:14:01.581Z,18
2023-01-23T08:15:01.189Z,19
2023-01-23T08:16:01.799Z,21
2023-01-23T08:17:01.207Z,26
2023-01-23T08:18:01.190Z,18
2023-01-23T08:19:01.273Z,21
2023-01-23T08:20:01.547Z,18
2023-01-23T08:21:01.262Z,19
2023-01-23T08:22:01.631Z,20
2023-01-23T08:23:01.207Z,19
2023-01-23T08:24:01.216Z,18
2023-01-23T08:25:01.199Z,20
2023-01-23T08:26:01.186Z,20
2023-01-23T08:27:01.269Z,18
2023-01-23T08:28:01.363Z,20
2023-01-23T08:29:02.017Z,18
2023-01-23T08:30:01.954Z,19
2023-01-23T08:31:02.075Z,19
2023-01-23T08:32:01.739Z,21
2023-01-23T08:33:01.871Z,35
2023-01-23T08:34:02.009Z,24
2023-01-23T08:35:00.375Z,33
2023-01-23T08:36:01.599Z,18
2023-01-23T08:37:01.549Z,21
2023-01-23T08:38:01.814Z,22
2023-01-23T08:39:02.040Z,18
2023-01-23T08:40:01.467Z,19
2023-01-23T08:41:01.260Z,20
2023-01-23T08:42:01.756Z,19
2023-01-23T08:43:01.319Z,17
2023-01-23T08:44:01.653Z,19
2023-01-23T08:45:01.766Z,25
2023-01-23T08:46:02.262Z,19
2023-01-23T08:47:01.884Z,16
2023-01-23T08:48:01.288Z,17
2023-01-23T08:49:02.160Z,19
2023-01-23T08:50:01.799Z,19
2023-01-23T08:51:01.766Z,18
2023-01-23T08:52:01.555Z,17
2023-01-23T08:53:01.737Z,17
2023-01-23T08:54:01.829Z,16
2023-01-23T08:55:01.590Z,17
2023-01-23T08:56:01.546Z,16
2023-01-23T08:57:01.624Z,20
2023-01-23T08:58:01.203Z,18
2023-01-23T08:59:00.675Z,20
2023-01-23T09:00:01.242Z,19
2023-01-23T09:01:01.661Z,19
2023-01-23T09:02:01.218Z,16
2023-01-23T09:03:01.740Z,17
2023-01-23T09:04:01.218Z,16
2023-01-23T09:05:01.803Z,17
2023-01-23T09:06:01.258Z,17
2023-01-23T09:07:01.212Z,18
2023-01-23T09:08:01.220Z,16
2023-01-23T09:09:01.197Z,16
2023-01-23T09:10:01.666Z,16
2023-01-23T09:11:01.632Z,14
2023-01-23T09:12:01.946Z,16
2023-01-23T09:13:01.811Z,16
2023-01-23T09:14:01.942Z,15
2023-01-23T09:15:01.338Z,14
2023-01-23T09:16:01.806Z,16
2023-01-23T09:17:01.601Z,16
2023-01-23T09:18:01.908Z,16
2023-01-23T09:19:01.202Z,16
2023-01-23T09:20:01.362Z,16
2023-01-23T09:21:01.177Z,16
2023-01-23T09:22:01.310Z,15
2023-01-23T09:23:01.963Z,16
2023-01-23T09:24:01.823Z,17
2023-01-23T09:25:01.199Z,15
2023-01-23T09:26:01.187Z,15
2023-01-23T09:27:01.476Z,16
2023-01-23T09:28:01.660Z,17
2023-01-23T09:29:01.595Z,15
2023-01-23T09:30:01.252Z,15
2023-01-23T09:31:01.437Z,15
2023-01-23T09:32:01.842Z,15
2023-01-23T09:33:01.190Z,17
2023-01-23T09:34:01.653Z,16
2023-01-23T09:35:01.199Z,15
2023-01-23T09:36:01.756Z,14
2023-01-23T09:37:01.246Z,16
2023-01-23T09:38:01.990Z,15
2023-01-23T09:39:01.381Z,15
2023-01-23T09:40:01.266Z,14
2023-01-23T09:41:01.302Z,14
2023-01-23T09:42:01.294Z,13
2023-01-23T09:43:01.417Z,14
2023-01-23T09:44:01.595Z,13
2023-01-23T09:45:01.305Z,14
2023-01-23T09:46:01.285Z,13
2023-01-23T09:47:01.498Z,14
2023-01-23T09:48:01.469Z,13
2023-01-23T09:49:01.225Z,14
2023-01-23T09:50:01.589Z,14
2023-01-23T09:51:01.934Z,15
2023-01-23T09:52:01.880Z,13
2023-01-23T09:53:01.579Z,14
2023-01-23T09:54:01.982Z,13
2023-01-23T09:55:01.789Z,14
2023-01-23T09:56:01.198Z,14
2023-01-23T09:57:01.260Z,14
2023-01-23T09:58:01.261Z,14
2023-01-23T09:59:01.215Z,14
2023-01-23T10:00:01.268Z,16
2023-01-23T10:01:02.098Z,14
2023-01-23T10:02:01.693Z,15
2023-01-23T10:03:01.269Z,14
2023-01-23T10:04:02.028Z,16
2023-01-23T10:05:01.255Z,14
2023-01-23T10:06:00.113Z,14
2023-01-23T10:07:01.208Z,13
2023-01-23T10:08:01.666Z,13
2023-01-23T10:09:01.917Z,13
2023-01-23T10:10:01.630Z,14
2023-01-23T10:11:01.400Z,15
2023-01-23T10:12:01.196Z,14
2023-01-23T10:13:02.194Z,14
2023-01-23T10:14:01.535Z,14
2023-01-23T10:15:02.118Z,15
2023-01-23T10:16:01.304Z,13
2023-01-23T10:17:01.296Z,12
2023-01-23T10:18:01.879Z,12
2023-01-23T10:19:01.209Z,13
2023-01-23T10:20:01.216Z,13
2023-01-23T10:21:01.941Z,12
2023-01-23T10:22:01.197Z,12
2023-01-23T10:23:01.954Z,12
2023-01-23T10:24:01.200Z,12
2023-01-23T10:25:01.416Z,11
2023-01-23T10:26:01.185Z,10
2023-01-23T10:27:01.909Z,11
2023-01-23T10:28:01.805Z,11
2023-01-23T10:29:01.891Z,12
2023-01-23T10:30:01.735Z,11
2023-01-23T10:31:01.435Z,11
2023-01-23T10:32:01.269Z,14
2023-01-23T10:33:01.178Z,12
2023-01-23T10:34:03.507Z,11
2023-01-23T10:35:01.213Z,11
2023-01-23T10:36:02.114Z,10
2023-01-23T10:37:01.484Z,11
2023-01-23T10:38:01.648Z,10
2023-01-23T10:39:01.746Z,11
2023-01-23T10:40:01.494Z,11
2023-01-23T10:41:01.184Z,9
2023-01-23T10:42:02.686Z,9
2023-01-23T10:43:01.176Z,10
2023-01-23T10:44:01.208Z,9
2023-01-23T10:45:01.511Z,10
2023-01-23T10:46:01.575Z,12
2023-01-23T10:47:02.159Z,10
2023-01-23T10:48:06.289Z,12
2023-01-23T10:49:01.850Z,11
2023-01-23T10:50:01.192Z,12
2023-01-23T10:51:01.952Z,11
2023-01-23T10:52:01.234Z,9
2023-01-23T10:53:01.182Z,10
2023-01-23T10:54:04.606Z,11
2023-01-23T10:55:01.285Z,11
2023-01-23T10:56:01.199Z,9
2023-01-23T10:57:01.270Z,11
2023-01-23T10:58:02.148Z,10
2023-01-23T10:59:01.205Z,12
2023-01-23T11:00:02.151Z,12
2023-01-23T11:01:01.308Z,12
2023-01-23T11:02:01.682Z,16
2023-01-23T11:03:01.278Z,12
2023-01-23T11:04:01.578Z,11
2023-01-23T11:05:01.201Z,11
2023-01-23T11:06:01.231Z,10
2023-01-23T11:07:01.247Z,8
2023-01-23T11:08:01.239Z,8
2023-01-23T11:09:01.810Z,9
2023-01-23T11:10:01.638Z,9
2023-01-23T11:11:01.203Z,8
2023-01-23T11:12:01.288Z,9
2023-01-23T11:13:00.854Z,9
2023-01-23T11:14:01.758Z,8
2023-01-23T11:15:01.258Z,8
2023-01-23T11:16:02.130Z,9
2023-01-23T11:17:01.176Z,8
2023-01-23T11:18:01.323Z,8
2023-01-23T11:19:01.815Z,7
2023-01-23T11:20:01.507Z,9
2023-01-23T11:21:02.076Z,8
2023-01-23T11:22:01.786Z,8
2023-01-23T11:23:02.036Z,8
2023-01-23T11:24:03.118Z,7
2023-01-23T11:25:02.071Z,8
2023-01-23T11:26:01.948Z,8
2023-01-23T11:27:01.982Z,8
2023-01-23T11:28:01.315Z,9
2023-01-23T11:29:01.833Z,8
2023-01-23T11:30:01.767Z,8
2023-01-23T11:31:13.177Z,8
2023-01-23T11:32:01.457Z,7
2023-01-23T11:33:01.241Z,8
2023-01-23T11:34:01.792Z,7
2023-01-23T11:35:01.290Z,7
2023-01-23T11:36:01.184Z,8
2023-01-23T11:37:01.551Z,8
2023-01-23T11:38:01.177Z,7
2023-01-23T11:39:02.005Z,7
2023-01-23T11:40:01.668Z,8
2023-01-23T11:41:01.242Z,7
2023-01-23T11:42:01.222Z,7
2023-01-23T11:43:01.175Z,6
2023-01-23T11:44:01.903Z,6
2023-01-23T11:45:01.188Z,6
2023-01-23T11:46:01.847Z,6
2023-01-23T11:47:01.721Z,6
2023-01-23T11:48:01.810Z,6
2023-01-23T11:49:01.771Z,7
2023-01-23T11:50:01.723Z,7
2023-01-23T11:51:01.179Z,6
2023-01-23T11:52:01.778Z,6
2023-01-23T11:53:01.946Z,6
2023-01-23T11:54:01.305Z,6
2023-01-23T11:55:01.789Z,7
2023-01-23T11:56:01.420Z,6
2023-01-23T11:57:01.938Z,6
2023-01-23T11:58:01.268Z,7
2023-01-23T11:59:02.011Z,6
2023-01-23T12:00:01.197Z,6
2023-01-23T12:01:01.423Z,6
2023-01-23T12:02:03.669Z,7
2023-01-23T12:03:01.854Z,7
2023-01-23T12:04:01.314Z,9
2023-01-23T12:05:01.237Z,9
2023-01-23T12:07:01.664Z,8
2023-01-23T12:08:01.174Z,8
2023-01-23T12:09:01.371Z,8
2023-01-23T12:10:02.016Z,8
2023-01-23T12:11:01.387Z,8
2023-01-23T12:12:01.213Z,8
2023-01-23T12:13:01.186Z,8
2023-01-23T12:14:01.902Z,6
2023-01-23T12:15:01.249Z,6
2023-01-23T12:16:01.326Z,7
2023-01-23T12:17:02.893Z,6
2023-01-23T12:19:01.512Z,6
2023-01-23T12:20:01.325Z,6
2023-01-23T12:21:00.659Z,6
2023-01-23T12:22:01.220Z,6
2023-01-23T12:23:02.070Z,5
2023-01-23T12:24:01.318Z,7
2023-01-23T12:25:01.595Z,10
2023-01-23T12:26:01.771Z,6
2023-01-23T12:27:01.960Z,7
2023-01-23T12:28:01.248Z,7
2023-01-23T12:29:01.193Z,7
2023-01-23T12:30:01.502Z,6
2023-01-23T12:31:01.252Z,6
2023-01-23T12:32:02.073Z,6
2023-01-23T12:33:01.537Z,6
2023-01-23T12:34:01.171Z,6
2023-01-23T12:35:02.155Z,6
2023-01-23T12:36:01.183Z,7
2023-01-23T12:37:16.579Z,6
2023-01-23T12:38:01.231Z,6
2023-01-23T12:39:01.173Z,6
2023-01-23T12:40:01.244Z,6
2023-01-23T12:41:02.035Z,6
2023-01-23T12:42:01.522Z,6
2023-01-23T12:43:00.627Z,6
2023-01-23T12:44:01.831Z,7
2023-01-23T12:45:01.677Z,7
2023-01-23T12:46:01.181Z,6
2023-01-23T12:47:02.141Z,7
2023-01-23T12:48:01.889Z,6
2023-01-23T12:49:01.255Z,7
2023-01-23T12:50:01.225Z,6
2023-01-23T12:51:01.840Z,7
2023-01-23T12:52:01.211Z,7
2023-01-23T12:53:01.673Z,6
2023-01-23T12:54:01.623Z,6
2023-01-23T12:55:01.184Z,5
2023-01-23T12:56:01.189Z,6
2023-01-23T12:57:01.929Z,6
2023-01-23T12:58:08.904Z,6
2023-01-23T12:59:01.456Z,6
2023-01-23T13:00:01.180Z,6
2023-01-23T13:01:02.082Z,6
2023-01-23T13:02:01.950Z,6
2023-01-23T13:03:01.190Z,6
2023-01-23T13:04:01.821Z,6
2023-01-23T13:05:01.954Z,6
2023-01-23T13:06:01.255Z,6
2023-01-23T13:07:01.340Z,6
2023-01-23T13:08:01.783Z,6
2023-01-23T13:09:12.535Z,7
2023-01-23T13:10:01.974Z,6
2023-01-23T13:11:02.099Z,7
2023-01-23T13:12:01.659Z,6
2023-01-23T13:13:01.178Z,8
2023-01-23T13:14:01.947Z,6
2023-01-23T13:15:13.382Z,6
2023-01-23T13:16:01.247Z,6
2023-01-23T13:17:01.652Z,6
2023-01-23T13:18:01.607Z,6
2023-01-23T13:19:01.243Z,7
2023-01-23T13:20:01.218Z,6
2023-01-23T13:21:01.203Z,6
2023-01-23T13:22:02.843Z,6
2023-01-23T13:23:02.021Z,6
2023-01-23T13:24:01.567Z,6
2023-01-23T13:25:01.357Z,6
2023-01-23T13:26:01.238Z,7
2023-01-23T13:27:01.296Z,7
2023-01-23T13:28:01.462Z,7
2023-01-23T13:29:01.472Z,6
2023-01-23T13:30:01.387Z,6
2023-01-23T13:31:01.533Z,7
2023-01-23T13:32:02.048Z,8
2023-01-23T13:33:01.676Z,9
2023-01-23T13:34:15.041Z,11
2023-01-23T13:35:01.249Z,12
2023-01-23T13:36:01.649Z,10
2023-01-23T13:37:01.995Z,10
2023-01-23T13:38:01.286Z,13
2023-01-23T13:39:01.979Z,10
2023-01-23T13:40:06.791Z,11
2023-01-23T13:41:01.211Z,8
2023-01-23T13:42:01.376Z,7
2023-01-23T13:43:01.486Z,12
2023-01-23T13:44:01.174Z,8
2023-01-23T13:45:01.814Z,8
2023-01-23T13:46:01.249Z,8
2023-01-23T13:47:01.183Z,7
2023-01-23T13:48:01.327Z,9
2023-01-23T13:49:01.260Z,8
2023-01-23T13:50:00.500Z,9
2023-01-23T13:51:02.348Z,8
2023-01-23T13:52:01.184Z,10
2023-01-23T13:53:02.098Z,10
2023-01-23T13:54:01.176Z,11
2023-01-23T13:55:01.195Z,10
2023-01-23T13:56:01.168Z,10
2023-01-23T13:57:01.296Z,9
2023-01-23T13:58:01.253Z,9
2023-01-23T13:59:01.661Z,8
2023-01-23T14:00:01.319Z,8
2023-01-23T14:01:01.670Z,8
2023-01-23T14:02:01.208Z,8
2023-01-23T14:03:01.543Z,9
2023-01-23T14:04:01.622Z,13
2023-01-23T14:05:01.521Z,16
2023-01-23T14:06:01.249Z,19
2023-01-23T14:07:01.187Z,15
2023-01-23T14:08:01.446Z,61
2023-01-23T14:09:02.046Z,48
2023-01-23T14:10:01.867Z,31
2023-01-23T14:11:01.174Z,22
2023-01-23T14:12:01.189Z,16
2023-01-23T14:13:01.743Z,15
2023-01-23T14:14:02.005Z,11
2023-01-23T14:15:01.241Z,10
2023-01-23T14:16:01.624Z,8
2023-01-23T14:17:01.245Z,11
2023-01-23T14:18:01.169Z,10
2023-01-23T14:19:01.410Z,11
2023-01-23T14:20:01.750Z,13
2023-01-23T14:21:02.055Z,8
2023-01-23T14:22:01.269Z,8
2023-01-23T14:23:01.273Z,9
2023-01-23T14:24:03.824Z,10